createdAt,value
2023-01-23T00:00:15.469Z,3.22
2023-01-23T00:02:59.532Z,2.17
2023-01-23T00:05:42.186Z,3.70
2023-01-23T00:08:24.863Z,2.88
2023-01-23T00:11:08.045Z,3.38
2023-01-23T00:13:50.751Z,2.88
2023-01-23T00:16:33.748Z,3.25
2023-01-23T00:19:17.774Z,2.90
2023-01-23T00:22:00.993Z,3.47
2023-01-23T00:24:43.646Z,2.45
2023-01-23T00:27:26.291Z,2.28
2023-01-23T00:30:09.596Z,2.60
2023-01-23T00:32:52.329Z,3.80
2023-01-23T00:35:36.607Z,2.60
2023-01-23T00:38:19.264Z,2.15
2023-01-23T00:41:02.370Z,1.52
2023-01-23T00:43:45.075Z,1.67
2023-01-23T00:46:27.770Z,0.63
2023-01-23T00:49:12.595Z,2.45
2023-01-23T00:51:56.740Z,1.88
2023-01-23T00:54:39.469Z,1.05
2023-01-23T00:57:22.172Z,2.05
2023-01-23T01:00:05.478Z,1.08
2023-01-23T01:02:48.215Z,0.88
2023-01-23T01:05:31.102Z,2.35
2023-01-23T01:08:15.112Z,2.05
2023-01-23T01:10:57.720Z,1.30
2023-01-23T01:13:40.895Z,3.47
2023-01-23T01:16:25.142Z,1.67
2023-01-23T01:19:07.785Z,1.00
2023-01-23T01:21:50.527Z,1.13
2023-01-23T01:24:34.695Z,1.48
2023-01-23T01:27:17.316Z,2.67
2023-01-23T01:29:59.959Z,4.28
2023-01-23T01:32:43.058Z,1.42
2023-01-23T01:35:25.987Z,2.80
2023-01-23T01:38:09.404Z,1.33
2023-01-23T01:40:53.444Z,1.33
2023-01-23T01:43:36.358Z,2.85
2023-01-23T01:46:20.847Z,3.33
2023-01-23T01:49:06.469Z,2.63
2023-01-23T01:51:52.193Z,2.83
2023-01-23T01:54:37.962Z,1.92
2023-01-23T01:57:23.325Z,3.00
2023-01-23T02:00:08.202Z,2.47
2023-01-23T02:03:10.075Z,1.70
2023-01-23T02:05:52.950Z,4.75
2023-01-23T02:08:38.833Z,2.97
2023-01-23T02:11:21.555Z,2.10
2023-01-23T02:14:07.520Z,4.25
2023-01-23T02:16:51.983Z,2.95
2023-01-23T02:19:39.237Z,2.53
2023-01-23T02:22:27.145Z,2.67
2023-01-23T02:25:13.349Z,1.98
2023-01-23T02:27:57.697Z,2.13
2023-01-23T02:30:42.315Z,1.85
2023-01-23T02:33:43.579Z,3.40
2023-01-23T02:36:27.265Z,4.75
2023-01-23T02:39:13.635Z,1.75
2023-01-23T02:41:57.262Z,4.28
2023-01-23T02:44:55.943Z,3.13
2023-01-23T02:47:38.783Z,1.73
2023-01-23T02:50:21.567Z,1.67
2023-01-23T02:53:05.188Z,3.40
2023-01-23T02:55:47.927Z,2.72
2023-01-23T02:58:47.985Z,3.78
2023-01-23T03:01:35.704Z,2.65
2023-01-23T03:04:18.685Z,2.95
2023-01-23T03:07:01.272Z,1.88
2023-01-23T03:09:47.716Z,2.17
2023-01-23T03:12:30.319Z,3.35
2023-01-23T03:15:14.038Z,3.47
2023-01-23T03:17:58.167Z,3.45
2023-01-23T03:20:41.161Z,3.70
2023-01-23T03:23:23.778Z,2.70
2023-01-23T03:26:06.736Z,2.75
2023-01-23T03:29:06.589Z,1.85
2023-01-23T03:31:49.235Z,2.35
2023-01-23T03:34:33.462Z,1.50
2023-01-23T03:37:17.408Z,2.55
2023-01-23T03:40:19.567Z,3.95
2023-01-23T03:43:02.412Z,3.13
2023-01-23T03:45:45.394Z,1.33
2023-01-23T03:48:28.109Z,2.17
2023-01-23T03:51:13.566Z,2.03
2023-01-23T03:53:56.704Z,1.50
2023-01-23T03:56:39.315Z,1.95
2023-01-23T03:59:25.219Z,2.47
2023-01-23T04:02:08.646Z,1.58
2023-01-23T04:04:51.227Z,2.10
2023-01-23T04:07:35.848Z,1.63
2023-01-23T04:10:18.951Z,1.58
2023-01-23T04:13:06.323Z,2.00
2023-01-23T04:15:49.045Z,3.50
2023-01-23T04:18:32.057Z,1.95
2023-01-23T04:21:15.010Z,2.28
2023-01-23T04:23:58.957Z,2.63
2023-01-23T04:26:41.558Z,1.90
2023-01-23T04:29:24.940Z,2.55
2023-01-23T04:32:09.587Z,3.08
2023-01-23T04:34:56.430Z,3.47
2023-01-23T04:37:41.077Z,3.38
2023-01-23T04:40:25.827Z,2.35
2023-01-23T04:43:12.253Z,3.33
2023-01-23T04:45:59.997Z,2.72
2023-01-23T04:48:47.413Z,2.10
2023-01-23T04:51:32.797Z,3.50
2023-01-23T04:54:15.563Z,2.10
2023-01-23T04:56:59.875Z,2.88
2023-01-23T04:59:42.525Z,2.78
2023-01-23T05:02:25.208Z,3.03
2023-01-23T05:05:09.110Z,4.10
2023-01-23T05:07:52.159Z,4.50
2023-01-23T05:10:34.740Z,4.28
2023-01-23T05:13:23.145Z,3.80
2023-01-23T05:16:06.005Z,2.50
2023-01-23T05:19:04.265Z,3.33
2023-01-23T05:21:48.053Z,3.65
2023-01-23T05:24:33.640Z,2.78
2023-01-23T05:27:16.377Z,3.03
2023-01-23T05:30:02.511Z,4.13
2023-01-23T05:32:49.905Z,3.13
2023-01-23T05:35:35.028Z,3.15
2023-01-23T05:38:17.940Z,3.10
2023-01-23T05:41:01.185Z,3.67
2023-01-23T05:44:03.750Z,3.88
2023-01-23T05:46:59.096Z,4.97
2023-01-23T05:49:41.799Z,3.92
2023-01-23T05:52:24.351Z,2.95
2023-01-23T05:55:07.496Z,3.90
2023-01-23T05:57:51.431Z,4.22
2023-01-23T06:00:52.756Z,4.70
2023-01-23T06:03:54.981Z,2.75
2023-01-23T06:07:06.767Z,2.92
2023-01-23T06:09:49.465Z,4.97
2023-01-23T06:12:32.052Z,2.95
2023-01-23T06:15:15.195Z,4.22
2023-01-23T06:17:58.785Z,4.13
2023-01-23T06:20:43.542Z,3.40
2023-01-23T06:23:26.214Z,3.72
2023-01-23T06:26:08.851Z,5.47
2023-01-23T06:28:51.959Z,3.63
2023-01-23T06:31:34.792Z,4.53
2023-01-23T06:34:18.212Z,3.88
2023-01-23T06:37:12.030Z,4.35
2023-01-23T06:39:56.537Z,5.47
2023-01-23T06:42:39.791Z,6.05
2023-01-23T06:45:22.617Z,5.68
2023-01-23T06:48:06.407Z,3.95
2023-01-23T06:50:49.179Z,3.83
2023-01-23T06:53:33.712Z,4.70
2023-01-23T06:56:16.877Z,4.13
2023-01-23T06:59:00.092Z,5.97
2023-01-23T07:01:46.648Z,5.97
2023-01-23T07:04:39.692Z,4.32
2023-01-23T07:07:22.396Z,5.00
2023-01-23T07:10:08.229Z,5.07
2023-01-23T07:12:51.318Z,6.13
2023-01-23T07:15:33.983Z,6.95
2023-01-23T07:18:16.643Z,4.63
2023-01-23T07:20:59.376Z,3.30
2023-01-23T07:23:41.978Z,3.85
2023-01-23T07:26:28.993Z,4.95
2023-01-23T07:29:12.025Z,4.32
2023-01-23T07:31:54.637Z,4.22
2023-01-23T07:34:37.259Z,5.45
2023-01-23T07:37:19.971Z,5.45
2023-01-23T07:40:02.818Z,5.68
2023-01-23T07:42:46.822Z,4.53
2023-01-23T07:45:29.414Z,3.65
2023-01-23T07:48:12.276Z,4.60
2023-01-23T07:50:54.862Z,4.05
2023-01-23T07:53:37.485Z,4.80
2023-01-23T07:56:20.066Z,4.97
2023-01-23T07:59:04.002Z,5.03
2023-01-23T08:01:46.631Z,4.30
2023-01-23T08:04:29.269Z,5.18
2023-01-23T08:07:12.036Z,5.63
2023-01-23T08:09:54.711Z,4.78
2023-01-23T08:12:37.332Z,4.80
2023-01-23T08:15:21.330Z,6.97
2023-01-23T08:18:03.986Z,5.85
2023-01-23T08:20:53.268Z,6.90
2023-01-23T08:23:36.160Z,6.82
2023-01-23T08:26:18.853Z,6.13
2023-01-23T08:29:01.552Z,4.20
2023-01-23T08:31:45.833Z,5.15
2023-01-23T08:34:28.558Z,5.30
2023-01-23T08:37:11.197Z,5.78
2023-01-23T08:39:53.811Z,4.25
2023-01-23T08:42:36.501Z,6.28
2023-01-23T08:45:19.312Z,4.50
2023-01-23T08:48:03.544Z,4.93
2023-01-23T08:50:46.437Z,6.38
2023-01-23T08:53:29.214Z,4.80
2023-01-23T08:56:16.700Z,4.55
2023-01-23T08:58:59.719Z,6.18
2023-01-23T09:01:42.448Z,7.03
2023-01-23T09:04:26.499Z,5.20
2023-01-23T09:07:09.188Z,5.65
2023-01-23T09:09:51.839Z,5.95
2023-01-23T09:12:34.712Z,5.28
2023-01-23T09:15:17.528Z,5.07
2023-01-23T09:18:00.247Z,5.78
2023-01-23T09:20:44.301Z,5.30
2023-01-23T09:23:27.022Z,6.70
2023-01-23T09:26:10.445Z,4.70
2023-01-23T09:28:53.066Z,5.68
2023-01-23T09:31:36.527Z,4.72
2023-01-23T09:34:19.400Z,4.85
2023-01-23T09:37:03.985Z,5.50
2023-01-23T09:39:47.319Z,7.03
2023-01-23T09:42:32.384Z,5.88
2023-01-23T09:45:17.411Z,5.55
2023-01-23T09:48:07.173Z,5.72
2023-01-23T09:50:54.762Z,5.25
2023-01-23T09:53:40.788Z,6.40
2023-01-23T09:56:30.161Z,6.43
2023-01-23T09:59:14.626Z,8.10
2023-01-23T10:01:57.582Z,4.97
2023-01-23T10:04:40.204Z,6.25
2023-01-23T10:07:39.957Z,6.25
2023-01-23T10:10:32.025Z,7.32
2023-01-23T10:13:16.809Z,6.38
2023-01-23T10:16:13.455Z,8.02
2023-01-23T10:19:03.522Z,7.45
2023-01-23T10:21:51.235Z,5.00
2023-01-23T10:24:45.424Z,6.10
2023-01-23T10:27:33.649Z,7.47
2023-01-23T10:30:20.346Z,6.72
2023-01-23T10:33:10.591Z,6.75
2023-01-23T10:35:55.646Z,5.25
2023-01-23T10:38:40.918Z,5.47
2023-01-23T10:41:23.691Z,8.02
2023-01-23T10:44:14.788Z,7.07
2023-01-23T10:46:59.501Z,7.00
2023-01-23T10:49:44.731Z,7.05
2023-01-23T10:52:32.729Z,6.75
2023-01-23T10:55:29.039Z,6.85
2023-01-23T10:58:24.624Z,8.10
2023-01-23T11:01:21.547Z,8.60
2023-01-23T11:04:11.057Z,8.52
2023-01-23T11:07:01.893Z,8.40
2023-01-23T11:09:52.935Z,8.40
2023-01-23T11:12:36.464Z,8.57
2023-01-23T11:15:23.163Z,7.97
2023-01-23T11:18:23.704Z,6.55
2023-01-23T11:21:06.432Z,8.40
2023-01-23T11:23:49.067Z,7.03
2023-01-23T11:26:32.618Z,7.57
2023-01-23T11:29:22.444Z,7.50
2023-01-23T11:32:06.558Z,8.55
2023-01-23T11:34:52.978Z,8.00
2023-01-23T11:37:37.855Z,7.50
2023-01-23T11:40:21.031Z,7.10
2023-01-23T11:43:03.636Z,8.07
2023-01-23T11:45:51.893Z,7.97
2023-01-23T11:48:48.037Z,9.73
2023-01-23T11:51:36.195Z,7.32
2023-01-23T11:54:32.799Z,8.27
2023-01-23T11:57:19.641Z,8.30
2023-01-23T12:00:07.532Z,7.72
2023-01-23T12:03:02.511Z,8.10
2023-01-23T12:06:13.891Z,8.40
2023-01-23T12:09:06.524Z,7.45
2023-01-23T12:12:00.037Z,8.07
2023-01-23T12:14:49.747Z,9.40
2023-01-23T12:17:40.328Z,7.43
2023-01-23T12:20:27.721Z,7.72
2023-01-23T12:23:17.823Z,8.90
2023-01-23T12:26:07.924Z,10.90
2023-01-23T12:29:00.602Z,7.50
2023-01-23T12:31:49.119Z,9.52
2023-01-23T12:34:42.619Z,7.82
2023-01-23T12:37:39.818Z,9.30
2023-01-23T12:40:26.086Z,7.80
2023-01-23T12:43:12.898Z,10.80
2023-01-23T12:45:59.538Z,8.02
2023-01-23T12:48:44.401Z,7.22
2023-01-23T12:51:30.209Z,8.05
2023-01-23T12:54:16.334Z,8.90
2023-01-23T12:57:00.418Z,7.90
2023-01-23T12:59:52.535Z,7.63
2023-01-23T13:02:40.106Z,8.95
2023-01-23T13:05:24.829Z,7.97
2023-01-23T13:08:10.567Z,9.57
2023-01-23T13:11:19.004Z,8.48
2023-01-23T13:14:02.398Z,9.52
2023-01-23T13:16:48.645Z,9.35
2023-01-23T13:19:49.433Z,8.90
2023-01-23T13:22:33.801Z,8.30
2023-01-23T13:25:18.143Z,8.52
2023-01-23T13:28:21.609Z,9.00
2023-01-23T13:31:05.861Z,7.50
2023-01-23T13:33:58.858Z,11.55
2023-01-23T13:36:44.073Z,8.57
2023-01-23T13:39:28.251Z,9.95
2023-01-23T13:42:44.076Z,10.77
2023-01-23T13:45:31.307Z,9.93
2023-01-23T14:20:55.213Z,9.38
2023-01-23T14:23:40.178Z,10.77
2023-01-23T14:26:25.289Z,11.43
2023-01-23T14:29:19.754Z,11.20
2023-01-23T14:32:02.477Z,9.63
2023-01-23T14:34:45.126Z,11.05
2023-01-23T14:37:28.218Z,10.13
2023-01-23T14:40:23.318Z,8.25
2023-01-23T14:43:18.353Z,9.43
2023-01-23T14:46:02.844Z,10.85
2023-01-23T14:48:47.178Z,9.73
2023-01-23T14:51:29.895Z,10.10
2023-01-23T14:54:22.691Z,10.98
2023-01-23T14:57:09.013Z,10.38
2023-01-23T14:59:54.295Z,12.23
2023-01-23T15:02:37.296Z,12.43
2023-01-23T15:05:22.553Z,9.50
2023-01-23T15:08:07.481Z,13.88
2023-01-23T15:10:51.666Z,9.88
2023-01-23T15:13:37.710Z,10.02
2023-01-23T15:16:22.966Z,11.27
2023-01-23T15:19:07.252Z,9.38
2023-01-23T15:21:50.272Z,10.40
2023-01-23T15:24:32.913Z,11.27
2023-01-23T15:27:25.658Z,10.23
2023-01-23T15:30:23.160Z,13.55
2023-01-23T15:33:23.644Z,11.45
2023-01-23T15:36:07.285Z,11.73
2023-01-23T15:38:50.025Z,11.45
2023-01-23T15:41:39.497Z,13.02
2023-01-23T15:44:22.929Z,12.48
2023-01-23T15:47:05.752Z,11.82
2023-01-23T15:49:49.786Z,11.25
2023-01-23T15:52:45.964Z,12.77
2023-01-23T15:55:29.434Z,14.93
2023-01-23T15:58:13.935Z,12.63
2023-01-23T16:00:56.566Z,13.27
2023-01-23T16:03:39.276Z,14.95
2023-01-23T16:06:26.164Z,13.55
2023-01-23T16:09:13.995Z,11.90
2023-01-23T16:11:56.583Z,10.95
2023-01-23T16:14:39.294Z,15.60
2023-01-23T16:17:22.090Z,14.68
2023-01-23T16:20:05.517Z,13.93
2023-01-23T16:22:51.321Z,12.73
2023-01-23T16:25:44.161Z,13.98
2023-01-23T16:28:27.895Z,14.27
2023-01-23T16:31:10.916Z,13.00
2023-01-23T16:33:53.629Z,11.43
2023-01-23T16:36:36.291Z,14.20
2023-01-23T16:39:21.199Z,13.20
2023-01-23T16:42:05.040Z,12.95
2023-01-23T16:44:47.720Z,11.45
2023-01-23T16:47:30.678Z,18.27
2023-01-23T16:50:13.644Z,13.77
2023-01-23T16:52:57.343Z,16.17
2023-01-23T16:55:42.217Z,14.52
2023-01-23T16:58:27.137Z,14.05
2023-01-23T17:01:13.957Z,15.75
2023-01-23T17:03:58.543Z,15.77
2023-01-23T17:06:41.450Z,18.15
2023-01-23T17:09:24.085Z,14.65
2023-01-23T17:12:11.875Z,17.25
2023-01-23T17:14:54.680Z,15.40
2023-01-23T17:17:37.347Z,15.52
2023-01-23T17:20:20.328Z,16.85
2023-01-23T17:23:02.980Z,16.38
2023-01-23T17:25:59.031Z,14.25
2023-01-23T17:28:43.684Z,12.30
2023-01-23T17:31:28.871Z,12.80
2023-01-23T17:34:15.281Z,15.15
2023-01-23T17:36:58.215Z,19.98
2023-01-23T17:39:41.020Z,18.02
2023-01-23T17:42:23.675Z,20.80
2023-01-23T17:45:08.270Z,19.88
2023-01-23T17:47:52.178Z,22.33
2023-01-23T17:50:34.839Z,22.75
2023-01-23T17:53:19.433Z,18.83
2023-01-23T17:56:02.088Z,20.02
2023-01-23T17:58:45.082Z,18.27
2023-01-23T18:01:33.759Z,16.73
2023-01-23T18:04:17.252Z,18.27
2023-01-23T18:07:00.057Z,17.65
2023-01-23T18:09:42.749Z,15.15
2023-01-23T18:12:29.873Z,16.08
2023-01-23T18:15:16.545Z,15.25
2023-01-23T18:18:09.158Z,14.20
2023-01-23T18:20:54.715Z,18.88
2023-01-23T18:23:37.768Z,18.50
2023-01-23T18:26:29.409Z,16.63
2023-01-23T18:29:20.231Z,15.73
2023-01-23T18:32:15.057Z,17.38
2023-01-23T18:35:04.163Z,16.42
2023-01-23T18:37:49.611Z,19.20
2023-01-23T18:40:36.891Z,18.85
2023-01-23T18:43:26.511Z,18.45
2023-01-23T18:46:12.936Z,18.70
2023-01-23T18:48:56.218Z,21.35
2023-01-23T18:51:46.452Z,20.15
2023-01-23T18:54:31.951Z,21.27
2023-01-23T18:57:19.457Z,17.58
2023-01-23T19:00:07.106Z,17.58
2023-01-23T19:02:52.211Z,16.38
2023-01-23T19:05:35.400Z,17.73
2023-01-23T19:08:28.290Z,21.77
2023-01-23T19:11:18.589Z,16.67
2023-01-23T19:14:07.305Z,14.60
2023-01-23T19:16:55.743Z,21.63
2023-01-23T19:19:42.316Z,18.67
2023-01-23T19:22:25.451Z,17.13
2023-01-23T19:25:15.168Z,18.52
2023-01-23T19:27:58.886Z,19.13
2023-01-23T19:30:42.410Z,15.15
2023-01-23T19:33:26.246Z,22.05
2023-01-23T19:36:11.425Z,18.15
2023-01-23T19:39:00.806Z,18.08
2023-01-23T19:41:46.663Z,17.88
2023-01-23T19:44:30.358Z,18.25
2023-01-23T19:47:13.094Z,21.77
2023-01-23T19:49:55.727Z,17.23
2023-01-23T19:52:38.333Z,19.67
2023-01-23T19:55:23.696Z,18.42
2023-01-23T19:58:08.169Z,18.02
2023-01-23T20:00:50.815Z,17.40
2023-01-23T20:03:35.564Z,20.48
2023-01-23T20:06:18.296Z,21.25
2023-01-23T20:09:00.972Z,19.17
2023-01-23T20:11:43.654Z,21.90
2023-01-23T20:14:29.000Z,19.80
2023-01-23T20:17:11.696Z,20.98
2023-01-23T20:19:54.375Z,20.15
2023-01-23T20:22:37.059Z,21.83
2023-01-23T20:25:20.020Z,19.90
2023-01-23T20:28:02.913Z,21.48
2023-01-23T20:30:46.913Z,21.35
2023-01-23T20:33:29.575Z,23.02
2023-01-23T20:36:13.311Z,21.90
2023-01-23T20:38:57.130Z,19.50
2023-01-23T20:41:40.012Z,19.52
2023-01-23T20:44:22.729Z,20.20
2023-01-23T20:47:06.820Z,21.25
2023-01-23T20:49:49.605Z,20.67
2023-01-23T20:52:49.552Z,23.77
2023-01-23T20:55:32.205Z,19.67
2023-01-23T20:58:32.174Z,20.27
2023-01-23T21:01:15.268Z,24.08
2023-01-23T21:03:59.282Z,23.55
2023-01-23T21:06:41.973Z,20.50
2023-01-23T21:09:24.636Z,20.80
2023-01-23T21:12:07.544Z,19.90
2023-01-23T21:14:50.240Z,21.80
2023-01-23T21:17:32.912Z,26.02
2023-01-23T21:20:16.935Z,22.27
2023-01-23T21:23:00.948Z,18.25
2023-01-23T21:25:43.746Z,22.30
2023-01-23T21:28:26.417Z,27.17
2023-01-23T21:31:09.888Z,22.85
2023-01-23T21:33:52.596Z,25.77
2023-01-23T21:36:37.155Z,27.25
2023-01-23T21:39:21.162Z,23.92
2023-01-23T21:42:03.826Z,23.38
2023-01-23T21:44:46.427Z,20.10
2023-01-23T21:47:29.105Z,22.10
2023-01-23T21:50:12.375Z,21.42
2023-01-23T21:52:55.035Z,21.05
2023-01-23T21:55:39.034Z,24.30
2023-01-23T21:58:21.773Z,26.55
2023-01-23T22:01:23.877Z,22.58
2023-01-23T22:04:07.357Z,24.20
2023-01-23T22:06:53.445Z,20.45
2023-01-23T22:09:36.824Z,18.33
2023-01-23T22:12:20.807Z,22.95
2023-01-23T22:15:03.509Z,23.92
2023-01-23T22:17:46.647Z,27.10
2023-01-23T22:20:29.284Z,28.00
2023-01-23T22:23:11.904Z,25.17
2023-01-23T22:25:56.831Z,23.63
2023-01-23T22:28:40.818Z,21.10
2023-01-23T22:31:23.494Z,22.88
2023-01-23T22:34:06.171Z,24.13
2023-01-23T22:36:48.799Z,20.33
2023-01-23T22:39:31.493Z,24.50
2023-01-23T22:42:14.128Z,21.35
2023-01-23T22:44:58.129Z,23.02
2023-01-23T22:47:40.799Z,23.45
2023-01-23T22:50:23.837Z,24.23
2023-01-23T22:53:06.574Z,20.67
2023-01-23T22:55:49.213Z,23.05
2023-01-23T22:58:32.044Z,23.83
2023-01-23T23:01:16.395Z,24.17
2023-01-23T23:03:59.609Z,23.17
2023-01-23T23:06:42.259Z,22.95
2023-01-23T23:09:24.912Z,22.65
2023-01-23T23:12:07.574Z,21.73
2023-01-23T23:14:50.181Z,22.23
2023-01-23T23:17:34.279Z,18.73
2023-01-23T23:20:17.313Z,19.55
2023-01-23T23:23:00.311Z,19.63
2023-01-23T23:25:42.960Z,23.10
2023-01-23T23:28:26.629Z,23.92
2023-01-23T23:31:09.932Z,19.40
2023-01-23T23:33:53.919Z,18.85
2023-01-23T23:36:36.558Z,21.65
2023-01-23T23:39:19.154Z,22.48
2023-01-23T23:42:01.783Z,24.75
2023-01-23T23:44:44.410Z,19.92
2023-01-23T23:47:28.111Z,21.17
2023-01-23T23:50:12.866Z,21.25
2023-01-23T23:52:55.579Z,22.90
2023-01-23T23:55:38.147Z,18.65
2023-01-23T23:58:20.742Z,22.48
